sensor_id;sensor_type;location;lat;lon;timestamp;P1;durP1;ratioP1;P2;durP2;ratioP2
47764;SDS011;33529;49.242;8.670;2022-08-21T00:02:20;4.43;;;2.45;;
47764;SDS011;33529;49.242;8.670;2022-08-21T00:04:49;4.25;;;3.10;;
47764;SDS011;33529;49.242;8.670;2022-08-21T00:07:23;4.80;;;3.22;;
47764;SDS011;33529;49.242;8.670;2022-08-21T00:09:51;6.90;;;4.80;;
47764;SDS011;33529;49.242;8.670;2022-08-21T00:12:18;4.57;;;3.42;;
47764;SDS011;33529;49.242;8.670;2022-08-21T00:14:46;6.38;;;3.80;;
47764;SDS011;33529;49.242;8.670;2022-08-21T00:17:13;5.85;;;3.55;;
47764;SDS011;33529;49.242;8.670;2022-08-21T00:19:40;4.63;;;3.20;;
47764;SDS011;33529;49.242;8.670;2022-08-21T00:22:07;5.70;;;3.10;;
47764;SDS011;33529;49.242;8.670;2022-08-21T00:24:34;5.07;;;3.28;;
47764;SDS011;33529;49.242;8.670;2022-08-21T00:27:00;4.25;;;3.20;;
47764;SDS011;33529;49.242;8.670;2022-08-21T00:29:27;4.38;;;3.17;;
47764;SDS011;33529;49.242;8.670;2022-08-21T00:31:54;4.93;;;3.47;;
47764;SDS011;33529;49.242;8.670;2022-08-21T00:34:21;5.90;;;3.28;;
47764;SDS011;33529;49.242;8.670;2022-08-21T00:36:48;6.07;;;3.70;;
47764;SDS011;33529;49.242;8.670;2022-08-21T00:39:15;6.13;;;4.22;;
47764;SDS011;33529;49.242;8.670;2022-08-21T00:41:42;4.47;;;3.53;;
47764;SDS011;33529;49.242;8.670;2022-08-21T00:44:10;4.00;;;3.10;;
47764;SDS011;33529;49.242;8.670;2022-08-21T00:46:39;5.70;;;3.55;;
47764;SDS011;33529;49.242;8.670;2022-08-21T00:49:06;5.30;;;3.35;;
47764;SDS011;33529;49.242;8.670;2022-08-21T00:51:37;4.38;;;3.22;;
47764;SDS011;33529;49.242;8.670;2022-08-21T00:54:07;7.05;;;3.67;;
47764;SDS011;33529;49.242;8.670;2022-08-21T00:56:44;6.10;;;3.58;;
47764;SDS011;33529;49.242;8.670;2022-08-21T00:59:18;5.47;;;3.40;;
47764;SDS011;33529;49.242;8.670;2022-08-21T01:01:46;6.30;;;3.78;;
47764;SDS011;33529;49.242;8.670;2022-08-21T01:04:14;5.50;;;3.78;;
47764;SDS011;33529;49.242;8.670;2022-08-21T01:06:42;15.95;;;4.53;;
47764;SDS011;33529;49.242;8.670;2022-08-21T01:09:09;5.28;;;3.50;;
47764;SDS011;33529;49.242;8.670;2022-08-21T01:11:37;5.55;;;3.75;;
47764;SDS011;33529;49.242;8.670;2022-08-21T01:14:04;5.53;;;4.05;;
47764;SDS011;33529;49.242;8.670;2022-08-21T01:16:31;5.35;;;3.60;;
47764;SDS011;33529;49.242;8.670;2022-08-21T01:18:59;4.93;;;3.75;;
47764;SDS011;33529;49.242;8.670;2022-08-21T01:21:26;5.38;;;3.67;;
47764;SDS011;33529;49.242;8.670;2022-08-21T01:23:55;6.22;;;3.72;;
47764;SDS011;33529;49.242;8.670;2022-08-21T01:26:24;7.20;;;3.90;;
47764;SDS011;33529;49.242;8.670;2022-08-21T01:29:16;6.53;;;3.42;;
47764;SDS011;33529;49.242;8.670;2022-08-21T01:31:49;5.60;;;3.67;;
47764;SDS011;33529;49.242;8.670;2022-08-21T01:34:17;5.72;;;3.60;;
47764;SDS011;33529;49.242;8.670;2022-08-21T01:36:45;5.18;;;3.95;;
47764;SDS011;33529;49.242;8.670;2022-08-21T01:39:13;6.53;;;3.80;;
47764;SDS011;33529;49.242;8.670;2022-08-21T01:41:41;4.88;;;3.20;;
47764;SDS011;33529;49.242;8.670;2022-08-21T01:44:09;5.10;;;3.80;;
47764;SDS011;33529;49.242;8.670;2022-08-21T01:46:35;6.85;;;4.30;;
47764;SDS011;33529;49.242;8.670;2022-08-21T01:49:03;6.00;;;3.95;;
47764;SDS011;33529;49.242;8.670;2022-08-21T01:51:30;6.82;;;3.90;;
47764;SDS011;33529;49.242;8.670;2022-08-21T01:53:57;5.00;;;4.00;;
47764;SDS011;33529;49.242;8.670;2022-08-21T01:56:24;7.70;;;4.15;;
47764;SDS011;33529;49.242;8.670;2022-08-21T01:58:52;6.28;;;4.18;;
47764;SDS011;33529;49.242;8.670;2022-08-21T02:01:18;6.40;;;4.35;;
47764;SDS011;33529;49.242;8.670;2022-08-21T02:03:45;4.53;;;3.42;;
47764;SDS011;33529;49.242;8.670;2022-08-21T02:06:14;4.78;;;3.53;;
47764;SDS011;33529;49.242;8.670;2022-08-21T02:08:44;5.15;;;4.05;;
47764;SDS011;33529;49.242;8.670;2022-08-21T02:11:11;7.97;;;5.13;;
47764;SDS011;33529;49.242;8.670;2022-08-21T02:13:38;9.43;;;7.15;;
47764;SDS011;33529;49.242;8.670;2022-08-21T02:16:06;5.32;;;3.97;;
47764;SDS011;33529;49.242;8.670;2022-08-21T02:18:34;7.03;;;5.53;;
47764;SDS011;33529;49.242;8.670;2022-08-21T02:21:01;5.93;;;4.57;;
47764;SDS011;33529;49.242;8.670;2022-08-21T02:23:28;8.30;;;5.70;;
47764;SDS011;33529;49.242;8.670;2022-08-21T02:25:59;8.82;;;4.90;;
47764;SDS011;33529;49.242;8.670;2022-08-21T02:28:29;5.72;;;3.72;;
47764;SDS011;33529;49.242;8.670;2022-08-21T02:30:56;5.60;;;4.38;;
47764;SDS011;33529;49.242;8.670;2022-08-21T02:33:24;5.03;;;3.97;;
47764;SDS011;33529;49.242;8.670;2022-08-21T02:35:54;5.32;;;4.63;;
47764;SDS011;33529;49.242;8.670;2022-08-21T02:38:24;7.93;;;5.47;;
47764;SDS011;33529;49.242;8.670;2022-08-21T02:40:53;6.40;;;5.30;;
47764;SDS011;33529;49.242;8.670;2022-08-21T02:43:21;7.57;;;5.82;;
47764;SDS011;33529;49.242;8.670;2022-08-21T02:45:49;6.63;;;4.97;;
47764;SDS011;33529;49.242;8.670;2022-08-21T02:48:18;5.45;;;4.20;;
47764;SDS011;33529;49.242;8.670;2022-08-21T02:50:50;7.03;;;4.22;;
47764;SDS011;33529;49.242;8.670;2022-08-21T02:53:20;6.70;;;4.55;;
47764;SDS011;33529;49.242;8.670;2022-08-21T02:55:48;7.10;;;4.30;;
47764;SDS011;33529;49.242;8.670;2022-08-21T02:58:19;6.65;;;4.30;;
47764;SDS011;33529;49.242;8.670;2022-08-21T03:00:49;5.13;;;3.90;;
47764;SDS011;33529;49.242;8.670;2022-08-21T03:03:17;6.07;;;4.00;;
47764;SDS011;33529;49.242;8.670;2022-08-21T03:05:44;5.32;;;4.20;;
47764;SDS011;33529;49.242;8.670;2022-08-21T03:08:12;5.43;;;3.75;;
47764;SDS011;33529;49.242;8.670;2022-08-21T03:10:42;7.00;;;3.97;;
47764;SDS011;33529;49.242;8.670;2022-08-21T03:13:11;5.47;;;3.55;;
47764;SDS011;33529;49.242;8.670;2022-08-21T03:15:41;5.80;;;3.83;;
47764;SDS011;33529;49.242;8.670;2022-08-21T03:18:09;6.38;;;3.80;;
47764;SDS011;33529;49.242;8.670;2022-08-21T03:20:37;6.70;;;3.25;;
47764;SDS011;33529;49.242;8.670;2022-08-21T03:23:05;5.43;;;3.40;;
47764;SDS011;33529;49.242;8.670;2022-08-21T03:25:42;5.43;;;3.90;;
47764;SDS011;33529;49.242;8.670;2022-08-21T03:28:11;6.18;;;4.10;;
47764;SDS011;33529;49.242;8.670;2022-08-21T03:30:44;5.88;;;3.95;;
47764;SDS011;33529;49.242;8.670;2022-08-21T03:33:13;5.47;;;4.10;;
47764;SDS011;33529;49.242;8.670;2022-08-21T03:35:44;5.50;;;4.05;;
47764;SDS011;33529;49.242;8.670;2022-08-21T03:38:13;4.63;;;3.97;;
47764;SDS011;33529;49.242;8.670;2022-08-21T03:40:41;5.63;;;4.10;;
47764;SDS011;33529;49.242;8.670;2022-08-21T03:43:08;7.65;;;5.35;;
47764;SDS011;33529;49.242;8.670;2022-08-21T03:45:38;7.88;;;4.63;;
47764;SDS011;33529;49.242;8.670;2022-08-21T03:48:06;7.05;;;4.80;;
47764;SDS011;33529;49.242;8.670;2022-08-21T03:50:35;5.85;;;4.50;;
47764;SDS011;33529;49.242;8.670;2022-08-21T03:53:06;7.00;;;4.30;;
47764;SDS011;33529;49.242;8.670;2022-08-21T03:55:43;5.47;;;4.07;;
47764;SDS011;33529;49.242;8.670;2022-08-21T03:58:16;6.95;;;4.05;;
47764;SDS011;33529;49.242;8.670;2022-08-21T04:00:46;8.32;;;4.22;;
47764;SDS011;33529;49.242;8.670;2022-08-21T04:03:15;6.40;;;4.35;;
47764;SDS011;33529;49.242;8.670;2022-08-21T04:05:42;5.10;;;3.75;;
47764;SDS011;33529;49.242;8.670;2022-08-21T04:08:12;5.53;;;3.97;;
47764;SDS011;33529;49.242;8.670;2022-08-21T04:10:40;5.55;;;4.05;;
47764;SDS011;33529;49.242;8.670;2022-08-21T04:17:13;5.15;;;3.67;;
47764;SDS011;33529;49.242;8.670;2022-08-21T04:19:40;5.03;;;3.75;;
47764;SDS011;33529;49.242;8.670;2022-08-21T04:22:07;5.80;;;3.58;;
47764;SDS011;33529;49.242;8.670;2022-08-21T04:24:34;7.15;;;4.03;;
47764;SDS011;33529;49.242;8.670;2022-08-21T04:27:01;4.40;;;3.38;;
47764;SDS011;33529;49.242;8.670;2022-08-21T04:29:28;7.50;;;4.07;;
47764;SDS011;33529;49.242;8.670;2022-08-21T04:31:55;5.43;;;3.80;;
47764;SDS011;33529;49.242;8.670;2022-08-21T04:34:22;6.40;;;4.10;;
47764;SDS011;33529;49.242;8.670;2022-08-21T04:36:48;6.65;;;3.85;;
47764;SDS011;33529;49.242;8.670;2022-08-21T04:39:15;6.05;;;3.97;;
47764;SDS011;33529;49.242;8.670;2022-08-21T04:41:42;7.55;;;3.97;;
47764;SDS011;33529;49.242;8.670;2022-08-21T04:44:09;6.00;;;3.85;;
47764;SDS011;33529;49.242;8.670;2022-08-21T04:46:37;6.05;;;4.55;;
47764;SDS011;33529;49.242;8.670;2022-08-21T04:49:05;5.15;;;3.83;;
47764;SDS011;33529;49.242;8.670;2022-08-21T04:51:32;5.75;;;3.50;;
47764;SDS011;33529;49.242;8.670;2022-08-21T04:54:09;5.53;;;4.23;;
47764;SDS011;33529;49.242;8.670;2022-08-21T04:56:44;7.13;;;4.07;;
47764;SDS011;33529;49.242;8.670;2022-08-21T04:59:26;6.82;;;3.63;;
47764;SDS011;33529;49.242;8.670;2022-08-21T05:01:57;6.82;;;4.10;;
47764;SDS011;33529;49.242;8.670;2022-08-21T05:04:27;8.00;;;4.07;;
47764;SDS011;33529;49.242;8.670;2022-08-21T05:06:57;5.50;;;3.85;;
47764;SDS011;33529;49.242;8.670;2022-08-21T05:11:56;5.47;;;4.00;;
47764;SDS011;33529;49.242;8.670;2022-08-21T05:14:24;6.32;;;4.18;;
47764;SDS011;33529;49.242;8.670;2022-08-21T05:16:53;4.55;;;3.72;;
47764;SDS011;33529;49.242;8.670;2022-08-21T05:19:23;6.43;;;4.35;;
47764;SDS011;33529;49.242;8.670;2022-08-21T05:21:50;7.38;;;4.50;;
47764;SDS011;33529;49.242;8.670;2022-08-21T05:24:17;5.40;;;3.97;;
47764;SDS011;33529;49.242;8.670;2022-08-21T05:26:44;6.85;;;4.22;;
47764;SDS011;33529;49.242;8.670;2022-08-21T05:29:14;7.05;;;3.78;;
47764;SDS011;33529;49.242;8.670;2022-08-21T05:31:43;8.82;;;4.45;;
47764;SDS011;33529;49.242;8.670;2022-08-21T05:34:12;5.38;;;3.45;;
47764;SDS011;33529;49.242;8.670;2022-08-21T05:36:45;8.77;;;3.97;;
47764;SDS011;33529;49.242;8.670;2022-08-21T05:39:13;6.55;;;3.50;;
47764;SDS011;33529;49.242;8.670;2022-08-21T05:41:40;6.00;;;3.92;;
47764;SDS011;33529;49.242;8.670;2022-08-21T05:44:07;7.22;;;4.10;;
47764;SDS011;33529;49.242;8.670;2022-08-21T05:46:36;5.40;;;3.83;;
47764;SDS011;33529;49.242;8.670;2022-08-21T05:49:03;6.43;;;3.75;;
47764;SDS011;33529;49.242;8.670;2022-08-21T05:51:30;6.50;;;3.75;;
47764;SDS011;33529;49.242;8.670;2022-08-21T05:53:59;8.15;;;4.60;;
47764;SDS011;33529;49.242;8.670;2022-08-21T05:56:26;6.28;;;4.15;;
47764;SDS011;33529;49.242;8.670;2022-08-21T05:58:53;5.70;;;3.45;;
47764;SDS011;33529;49.242;8.670;2022-08-21T06:01:20;5.57;;;3.97;;
47764;SDS011;33529;49.242;8.670;2022-08-21T06:03:48;6.03;;;4.25;;
47764;SDS011;33529;49.242;8.670;2022-08-21T06:06:15;6.30;;;3.85;;
47764;SDS011;33529;49.242;8.670;2022-08-21T06:08:43;6.35;;;3.63;;
47764;SDS011;33529;49.242;8.670;2022-08-21T06:11:10;6.40;;;3.75;;
47764;SDS011;33529;49.242;8.670;2022-08-21T06:13:37;6.25;;;4.05;;
47764;SDS011;33529;49.242;8.670;2022-08-21T06:16:09;6.00;;;3.78;;
47764;SDS011;33529;49.242;8.670;2022-08-21T06:18:41;5.53;;;3.47;;
47764;SDS011;33529;49.242;8.670;2022-08-21T06:21:09;6.65;;;3.65;;
47764;SDS011;33529;49.242;8.670;2022-08-21T06:23:37;6.78;;;4.32;;
47764;SDS011;33529;49.242;8.670;2022-08-21T06:26:05;6.22;;;3.83;;
47764;SDS011;33529;49.242;8.670;2022-08-21T06:28:34;7.22;;;4.15;;
47764;SDS011;33529;49.242;8.670;2022-08-21T06:31:01;5.57;;;3.83;;
47764;SDS011;33529;49.242;8.670;2022-08-21T06:33:37;8.75;;;3.72;;
47764;SDS011;33529;49.242;8.670;2022-08-21T06:36:03;8.35;;;3.85;;
47764;SDS011;33529;49.242;8.670;2022-08-21T06:38:31;8.15;;;3.55;;
47764;SDS011;33529;49.242;8.670;2022-08-21T06:40:58;6.07;;;3.30;;
47764;SDS011;33529;49.242;8.670;2022-08-21T06:43:25;6.30;;;4.05;;
47764;SDS011;33529;49.242;8.670;2022-08-21T06:46:05;7.18;;;4.05;;
47764;SDS011;33529;49.242;8.670;2022-08-21T06:48:33;6.45;;;4.25;;
47764;SDS011;33529;49.242;8.670;2022-08-21T06:51:00;7.22;;;4.18;;
47764;SDS011;33529;49.242;8.670;2022-08-21T06:53:27;8.18;;;3.88;;
47764;SDS011;33529;49.242;8.670;2022-08-21T06:55:54;16.30;;;5.10;;
47764;SDS011;33529;49.242;8.670;2022-08-21T06:58:21;7.35;;;4.30;;
47764;SDS011;33529;49.242;8.670;2022-08-21T07:00:48;7.90;;;4.38;;
47764;SDS011;33529;49.242;8.670;2022-08-21T07:03:18;6.68;;;4.05;;
47764;SDS011;33529;49.242;8.670;2022-08-21T07:05:53;7.43;;;3.55;;
47764;SDS011;33529;49.242;8.670;2022-08-21T07:08:20;6.60;;;3.65;;
47764;SDS011;33529;49.242;8.670;2022-08-21T07:10:48;9.35;;;3.90;;
47764;SDS011;33529;49.242;8.670;2022-08-21T07:13:15;7.53;;;3.75;;
47764;SDS011;33529;49.242;8.670;2022-08-21T07:15:43;8.48;;;3.97;;
47764;SDS011;33529;49.242;8.670;2022-08-21T07:18:11;8.40;;;4.10;;
47764;SDS011;33529;49.242;8.670;2022-08-21T07:20:39;5.65;;;3.72;;
47764;SDS011;33529;49.242;8.670;2022-08-21T07:23:09;7.88;;;3.38;;
47764;SDS011;33529;49.242;8.670;2022-08-21T07:25:39;7.18;;;4.20;;
47764;SDS011;33529;49.242;8.670;2022-08-21T07:28:05;6.03;;;3.28;;
47764;SDS011;33529;49.242;8.670;2022-08-21T07:30:32;8.20;;;4.30;;
47764;SDS011;33529;49.242;8.670;2022-08-21T07:32:59;5.95;;;4.13;;
47764;SDS011;33529;49.242;8.670;2022-08-21T07:35:27;9.38;;;3.95;;
47764;SDS011;33529;49.242;8.670;2022-08-21T07:37:54;6.25;;;3.70;;
47764;SDS011;33529;49.242;8.670;2022-08-21T07:40:21;7.15;;;3.80;;
47764;SDS011;33529;49.242;8.670;2022-08-21T07:42:48;6.18;;;3.78;;
47764;SDS011;33529;49.242;8.670;2022-08-21T07:45:18;6.25;;;3.47;;
47764;SDS011;33529;49.242;8.670;2022-08-21T07:47:47;6.85;;;3.47;;
47764;SDS011;33529;49.242;8.670;2022-08-21T07:50:20;6.60;;;3.88;;
47764;SDS011;33529;49.242;8.670;2022-08-21T07:52:47;7.85;;;3.80;;
47764;SDS011;33529;49.242;8.670;2022-08-21T07:55:15;7.57;;;3.38;;
47764;SDS011;33529;49.242;8.670;2022-08-21T07:57:44;7.82;;;3.75;;
47764;SDS011;33529;49.242;8.670;2022-08-21T08:00:13;12.23;;;4.25;;
47764;SDS011;33529;49.242;8.670;2022-08-21T08:02:44;7.20;;;4.03;;
47764;SDS011;33529;49.242;8.670;2022-08-21T08:05:12;5.53;;;3.40;;
47764;SDS011;33529;49.242;8.670;2022-08-21T08:07:39;7.97;;;4.13;;
47764;SDS011;33529;49.242;8.670;2022-08-21T08:10:06;6.97;;;3.45;;
47764;SDS011;33529;49.242;8.670;2022-08-21T08:12:35;6.82;;;4.28;;
47764;SDS011;33529;49.242;8.670;2022-08-21T08:15:04;6.68;;;3.60;;
47764;SDS011;33529;49.242;8.670;2022-08-21T08:17:34;7.15;;;3.67;;
47764;SDS011;33529;49.242;8.670;2022-08-21T08:20:01;6.55;;;3.35;;
47764;SDS011;33529;49.242;8.670;2022-08-21T08:22:28;7.43;;;4.90;;
47764;SDS011;33529;49.242;8.670;2022-08-21T08:24:55;7.35;;;3.67;;
47764;SDS011;33529;49.242;8.670;2022-08-21T08:27:23;8.45;;;5.03;;
47764;SDS011;33529;49.242;8.670;2022-08-21T08:29:50;8.43;;;4.28;;
47764;SDS011;33529;49.242;8.670;2022-08-21T08:32:17;7.65;;;4.47;;
47764;SDS011;33529;49.242;8.670;2022-08-21T08:34:45;8.65;;;4.90;;
47764;SDS011;33529;49.242;8.670;2022-08-21T08:37:13;9.05;;;4.60;;
47764;SDS011;33529;49.242;8.670;2022-08-21T08:39:40;8.63;;;4.05;;
47764;SDS011;33529;49.242;8.670;2022-08-21T08:42:11;6.35;;;3.97;;
47764;SDS011;33529;49.242;8.670;2022-08-21T08:45:07;7.38;;;4.10;;
47764;SDS011;33529;49.242;8.670;2022-08-21T08:47:38;6.10;;;3.65;;
47764;SDS011;33529;49.242;8.670;2022-08-21T08:50:11;5.55;;;3.70;;
47764;SDS011;33529;49.242;8.670;2022-08-21T08:55:26;6.70;;;3.95;;
47764;SDS011;33529;49.242;8.670;2022-08-21T08:58:01;6.07;;;3.90;;
47764;SDS011;33529;49.242;8.670;2022-08-21T09:00:29;8.43;;;4.03;;
47764;SDS011;33529;49.242;8.670;2022-08-21T09:02:59;4.97;;;3.55;;
47764;SDS011;33529;49.242;8.670;2022-08-21T09:05:50;7.80;;;4.43;;
47764;SDS011;33529;49.242;8.670;2022-08-21T09:22:03;9.40;;;4.53;;
47764;SDS011;33529;49.242;8.670;2022-08-21T09:27:24;6.88;;;4.55;;
47764;SDS011;33529;49.242;8.670;2022-08-21T09:29:52;8.30;;;4.78;;
47764;SDS011;33529;49.242;8.670;2022-08-21T09:32:24;6.05;;;4.30;;
47764;SDS011;33529;49.242;8.670;2022-08-21T09:35:16;6.47;;;3.72;;
47764;SDS011;33529;49.242;8.670;2022-08-21T09:40:21;6.30;;;3.53;;
47764;SDS011;33529;49.242;8.670;2022-08-21T09:42:59;6.78;;;3.45;;
47764;SDS011;33529;49.242;8.670;2022-08-21T09:46:06;6.18;;;3.20;;
47764;SDS011;33529;49.242;8.670;2022-08-21T09:48:40;10.52;;;4.25;;
47764;SDS011;33529;49.242;8.670;2022-08-21T09:51:15;9.02;;;4.10;;
47764;SDS011;33529;49.242;8.670;2022-08-21T09:54:14;7.40;;;3.90;;
47764;SDS011;33529;49.242;8.670;2022-08-21T09:57:00;7.80;;;4.18;;
47764;SDS011;33529;49.242;8.670;2022-08-21T09:59:55;5.57;;;3.38;;
47764;SDS011;33529;49.242;8.670;2022-08-21T10:02:35;6.53;;;3.45;;
47764;SDS011;33529;49.242;8.670;2022-08-21T10:05:04;6.40;;;3.67;;
47764;SDS011;33529;49.242;8.670;2022-08-21T10:07:36;8.10;;;3.53;;
47764;SDS011;33529;49.242;8.670;2022-08-21T10:10:08;8.18;;;3.47;;
47764;SDS011;33529;49.242;8.670;2022-08-21T10:12:59;7.90;;;3.72;;
47764;SDS011;33529;49.242;8.670;2022-08-21T10:23:27;5.80;;;3.50;;
47764;SDS011;33529;49.242;8.670;2022-08-21T10:28:49;5.95;;;3.72;;
47764;SDS011;33529;49.242;8.670;2022-08-21T10:34:54;4.93;;;3.25;;
47764;SDS011;33529;49.242;8.670;2022-08-21T10:40:10;7.00;;;4.13;;
47764;SDS011;33529;49.242;8.670;2022-08-21T10:47:53;5.80;;;3.30;;
47764;SDS011;33529;49.242;8.670;2022-08-21T10:56:14;6.28;;;3.13;;
47764;SDS011;33529;49.242;8.670;2022-08-21T10:58:56;6.25;;;3.55;;
47764;SDS011;33529;49.242;8.670;2022-08-21T11:06:41;7.40;;;3.90;;
47764;SDS011;33529;49.242;8.670;2022-08-21T11:09:19;7.35;;;3.95;;
47764;SDS011;33529;49.242;8.670;2022-08-21T11:11:56;6.60;;;3.55;;
47764;SDS011;33529;49.242;8.670;2022-08-21T11:14:50;6.78;;;3.35;;
47764;SDS011;33529;49.242;8.670;2022-08-21T11:18:01;5.68;;;3.35;;
47764;SDS011;33529;49.242;8.670;2022-08-21T11:20:37;10.30;;;4.10;;
47764;SDS011;33529;49.242;8.670;2022-08-21T11:23:23;5.70;;;3.67;;
47764;SDS011;33529;49.242;8.670;2022-08-21T11:25:58;6.63;;;3.60;;
47764;SDS011;33529;49.242;8.670;2022-08-21T11:28:31;5.60;;;3.10;;
47764;SDS011;33529;49.242;8.670;2022-08-21T11:41:54;8.20;;;3.92;;
47764;SDS011;33529;49.242;8.670;2022-08-21T11:47:30;8.18;;;4.00;;
47764;SDS011;33529;49.242;8.670;2022-08-21T11:58:06;8.73;;;3.47;;
47764;SDS011;33529;49.242;8.670;2022-08-21T12:00:52;5.88;;;3.10;;
47764;SDS011;33529;49.242;8.670;2022-08-21T12:03:27;7.60;;;3.42;;
47764;SDS011;33529;49.242;8.670;2022-08-21T12:06:00;6.78;;;3.47;;
47764;SDS011;33529;49.242;8.670;2022-08-21T12:08:34;9.10;;;3.50;;
47764;SDS011;33529;49.242;8.670;2022-08-21T12:11:05;5.82;;;3.70;;
47764;SDS011;33529;49.242;8.670;2022-08-21T12:16:28;5.55;;;2.63;;
47764;SDS011;33529;49.242;8.670;2022-08-21T12:19:12;6.55;;;3.20;;
47764;SDS011;33529;49.242;8.670;2022-08-21T12:26:54;5.95;;;2.80;;
47764;SDS011;33529;49.242;8.670;2022-08-21T12:29:25;6.97;;;2.97;;
47764;SDS011;33529;49.242;8.670;2022-08-21T12:32:00;7.40;;;3.20;;
47764;SDS011;33529;49.242;8.670;2022-08-21T12:34:38;5.50;;;3.03;;
47764;SDS011;33529;49.242;8.670;2022-08-21T12:39:53;4.97;;;2.92;;
47764;SDS011;33529;49.242;8.670;2022-08-21T12:42:41;5.22;;;2.75;;
47764;SDS011;33529;49.242;8.670;2022-08-21T12:48:07;5.07;;;3.20;;
47764;SDS011;33529;49.242;8.670;2022-08-21T12:50:51;4.95;;;2.95;;
47764;SDS011;33529;49.242;8.670;2022-08-21T12:53:31;6.03;;;3.00;;
47764;SDS011;33529;49.242;8.670;2022-08-21T12:56:08;5.00;;;2.78;;
47764;SDS011;33529;49.242;8.670;2022-08-21T12:58:39;4.93;;;3.33;;
47764;SDS011;33529;49.242;8.670;2022-08-21T13:01:20;6.45;;;2.67;;
47764;SDS011;33529;49.242;8.670;2022-08-21T13:03:54;6.95;;;2.45;;
47764;SDS011;33529;49.242;8.670;2022-08-21T13:06:32;5.45;;;2.63;;
47764;SDS011;33529;49.242;8.670;2022-08-21T13:09:06;6.05;;;3.05;;
47764;SDS011;33529;49.242;8.670;2022-08-21T13:11:37;3.55;;;2.08;;
47764;SDS011;33529;49.242;8.670;2022-08-21T13:14:09;6.28;;;2.25;;
47764;SDS011;33529;49.242;8.670;2022-08-21T13:16:53;4.40;;;2.70;;
47764;SDS011;33529;49.242;8.670;2022-08-21T13:19:22;5.35;;;2.83;;
47764;SDS011;33529;49.242;8.670;2022-08-21T13:21:50;4.55;;;2.50;;
47764;SDS011;33529;49.242;8.670;2022-08-21T13:24:20;8.90;;;2.80;;
47764;SDS011;33529;49.242;8.670;2022-08-21T13:27:24;5.85;;;2.90;;
47764;SDS011;33529;49.242;8.670;2022-08-21T13:30:39;15.68;;;4.55;;
47764;SDS011;33529;49.242;8.670;2022-08-21T13:32:50;5.72;;;2.35;;
47764;SDS011;33529;49.242;8.670;2022-08-21T13:35:34;4.90;;;2.22;;
47764;SDS011;33529;49.242;8.670;2022-08-21T13:38:11;7.00;;;2.23;;
47764;SDS011;33529;49.242;8.670;2022-08-21T13:40:46;4.47;;;2.13;;
47764;SDS011;33529;49.242;8.670;2022-08-21T13:43:20;5.35;;;2.17;;
47764;SDS011;33529;49.242;8.670;2022-08-21T13:45:53;7.20;;;2.83;;
47764;SDS011;33529;49.242;8.670;2022-08-21T13:48:23;5.78;;;2.25;;
47764;SDS011;33529;49.242;8.670;2022-08-21T13:50:54;5.03;;;2.60;;
47764;SDS011;33529;49.242;8.670;2022-08-21T13:53:35;5.50;;;2.30;;
47764;SDS011;33529;49.242;8.670;2022-08-21T13:59:00;5.65;;;2.13;;
47764;SDS011;33529;49.242;8.670;2022-08-21T14:03:57;3.92;;;2.30;;
47764;SDS011;33529;49.242;8.670;2022-08-21T14:06:46;4.13;;;2.10;;
47764;SDS011;33529;49.242;8.670;2022-08-21T14:09:22;4.63;;;2.22;;
47764;SDS011;33529;49.242;8.670;2022-08-21T14:12:13;5.38;;;2.17;;
47764;SDS011;33529;49.242;8.670;2022-08-21T14:14:55;5.22;;;2.17;;
47764;SDS011;33529;49.242;8.670;2022-08-21T14:17:34;5.00;;;2.38;;
47764;SDS011;33529;49.242;8.670;2022-08-21T14:20:04;4.15;;;2.00;;
47764;SDS011;33529;49.242;8.670;2022-08-21T14:22:43;4.70;;;2.03;;
47764;SDS011;33529;49.242;8.670;2022-08-21T14:25:15;4.87;;;2.63;;
47764;SDS011;33529;49.242;8.670;2022-08-21T14:27:58;5.80;;;2.13;;
47764;SDS011;33529;49.242;8.670;2022-08-21T14:30:42;3.33;;;1.67;;
47764;SDS011;33529;49.242;8.670;2022-08-21T14:33:11;4.15;;;1.98;;
47764;SDS011;33529;49.242;8.670;2022-08-21T14:35:48;3.55;;;1.95;;
47764;SDS011;33529;49.242;8.670;2022-08-21T14:38:15;4.55;;;1.88;;
47764;SDS011;33529;49.242;8.670;2022-08-21T14:40:44;3.10;;;1.80;;
47764;SDS011;33529;49.242;8.670;2022-08-21T14:43:16;3.40;;;1.65;;
47764;SDS011;33529;49.242;8.670;2022-08-21T14:45:45;4.30;;;2.17;;
47764;SDS011;33529;49.242;8.670;2022-08-21T14:48:12;3.60;;;1.85;;
47764;SDS011;33529;49.242;8.670;2022-08-21T14:50:40;3.50;;;2.03;;
47764;SDS011;33529;49.242;8.670;2022-08-21T14:53:08;4.00;;;2.08;;
47764;SDS011;33529;49.242;8.670;2022-08-21T14:55:37;5.10;;;1.70;;
47764;SDS011;33529;49.242;8.670;2022-08-21T14:58:24;3.88;;;2.05;;
47764;SDS011;33529;49.242;8.670;2022-08-21T15:00:52;3.28;;;2.00;;
47764;SDS011;33529;49.242;8.670;2022-08-21T15:03:20;3.75;;;2.03;;
47764;SDS011;33529;49.242;8.670;2022-08-21T15:05:52;4.60;;;1.70;;
47764;SDS011;33529;49.242;8.670;2022-08-21T15:08:19;4.75;;;2.05;;
47764;SDS011;33529;49.242;8.670;2022-08-21T15:10:46;6.07;;;1.85;;
47764;SDS011;33529;49.242;8.670;2022-08-21T15:13:33;7.05;;;2.60;;
47764;SDS011;33529;49.242;8.670;2022-08-21T15:16:00;3.38;;;2.20;;
47764;SDS011;33529;49.242;8.670;2022-08-21T15:18:28;6.18;;;2.28;;
47764;SDS011;33529;49.242;8.670;2022-08-21T15:20:56;4.78;;;1.92;;
47764;SDS011;33529;49.242;8.670;2022-08-21T15:23:23;5.20;;;2.38;;
47764;SDS011;33529;49.242;8.670;2022-08-21T15:25:51;5.25;;;2.00;;
47764;SDS011;33529;49.242;8.670;2022-08-21T15:28:19;4.35;;;2.17;;
47764;SDS011;33529;49.242;8.670;2022-08-21T15:30:47;3.85;;;2.35;;
47764;SDS011;33529;49.242;8.670;2022-08-21T15:33:15;4.38;;;2.22;;
47764;SDS011;33529;49.242;8.670;2022-08-21T15:35:42;4.13;;;1.90;;
47764;SDS011;33529;49.242;8.670;2022-08-21T15:38:09;3.50;;;1.88;;
47764;SDS011;33529;49.242;8.670;2022-08-21T15:40:36;4.53;;;2.33;;
47764;SDS011;33529;49.242;8.670;2022-08-21T15:43:37;3.85;;;1.67;;
47764;SDS011;33529;49.242;8.670;2022-08-21T15:46:09;3.60;;;2.28;;
47764;SDS011;33529;49.242;8.670;2022-08-21T15:48:38;4.60;;;2.15;;
47764;SDS011;33529;49.242;8.670;2022-08-21T15:51:06;3.58;;;2.28;;
47764;SDS011;33529;49.242;8.670;2022-08-21T15:53:33;3.85;;;2.10;;
47764;SDS011;33529;49.242;8.670;2022-08-21T15:56:05;4.03;;;2.15;;
47764;SDS011;33529;49.242;8.670;2022-08-21T15:58:46;2.72;;;1.70;;
47764;SDS011;33529;49.242;8.670;2022-08-21T16:01:13;4.25;;;1.75;;
47764;SDS011;33529;49.242;8.670;2022-08-21T16:03:40;3.33;;;1.90;;
47764;SDS011;33529;49.242;8.670;2022-08-21T16:06:10;3.47;;;1.55;;
47764;SDS011;33529;49.242;8.670;2022-08-21T16:08:37;3.78;;;2.05;;
47764;SDS011;33529;49.242;8.670;2022-08-21T16:11:04;2.97;;;1.73;;
47764;SDS011;33529;49.242;8.670;2022-08-21T16:13:35;3.22;;;1.92;;
47764;SDS011;33529;49.242;8.670;2022-08-21T16:16:05;4.38;;;2.00;;
47764;SDS011;33529;49.242;8.670;2022-08-21T16:18:32;4.03;;;2.28;;
47764;SDS011;33529;49.242;8.670;2022-08-21T16:20:59;4.00;;;2.20;;
47764;SDS011;33529;49.242;8.670;2022-08-21T16:23:26;5.45;;;2.90;;
47764;SDS011;33529;49.242;8.670;2022-08-21T16:25:53;4.40;;;2.60;;
47764;SDS011;33529;49.242;8.670;2022-08-21T16:28:20;4.15;;;1.85;;
47764;SDS011;33529;49.242;8.670;2022-08-21T16:30:48;4.03;;;2.17;;
47764;SDS011;33529;49.242;8.670;2022-08-21T16:33:24;3.97;;;2.00;;
47764;SDS011;33529;49.242;8.670;2022-08-21T16:36:02;4.45;;;2.20;;
47764;SDS011;33529;49.242;8.670;2022-08-21T16:38:30;3.63;;;2.33;;
47764;SDS011;33529;49.242;8.670;2022-08-21T16:41:06;5.00;;;2.40;;
47764;SDS011;33529;49.242;8.670;2022-08-21T16:43:39;5.22;;;2.42;;
47764;SDS011;33529;49.242;8.670;2022-08-21T16:46:08;4.10;;;2.20;;
47764;SDS011;33529;49.242;8.670;2022-08-21T16:48:37;5.00;;;2.78;;
47764;SDS011;33529;49.242;8.670;2022-08-21T16:51:05;5.15;;;2.50;;
47764;SDS011;33529;49.242;8.670;2022-08-21T16:53:32;4.30;;;2.60;;
47764;SDS011;33529;49.242;8.670;2022-08-21T16:55:59;4.38;;;2.30;;